createdAt,value
2019-04-03T00:00:40.942Z,97020.10
2019-04-03T00:03:11.184Z,97012.09
2019-04-03T00:05:41.318Z,97008.79
2019-04-03T00:08:12.772Z,97011.41
2019-04-03T00:10:43.142Z,97008.61
2019-04-03T00:13:13.735Z,97008.93
2019-04-03T00:15:44.774Z,97005.12
2019-04-03T00:18:16.559Z,97006.59
2019-04-03T00:20:49.171Z,97011.34
2019-04-03T00:23:20.606Z,97012.81
2019-04-03T00:25:52.836Z,97003.33
2019-04-03T00:28:23.167Z,97004.69
2019-04-03T00:30:53.406Z,96995.65
2019-04-03T00:33:23.938Z,96998.13
2019-04-03T00:35:54.492Z,96995.88
2019-04-03T00:38:25.741Z,96995.20
2019-04-03T00:40:57.049Z,96991.13
2019-04-03T00:43:27.261Z,96984.81
2019-04-03T00:45:57.511Z,96985.28
2019-04-03T00:48:27.645Z,96983.92
2019-04-03T00:50:58.048Z,96976.56
2019-04-03T00:53:28.359Z,96982.91
2019-04-03T00:55:58.765Z,96978.59
2019-04-03T00:58:39.897Z,96985.40
2019-04-03T01:01:11.860Z,96986.18
2019-04-03T01:03:42.203Z,96980.63
2019-04-03T01:06:12.613Z,96980.08
2019-04-03T01:08:42.932Z,96975.91
2019-04-03T01:11:13.396Z,96976.34
2019-04-03T01:13:43.875Z,96982.11
2019-04-03T01:16:14.187Z,96977.95
2019-04-03T01:18:45.454Z,96974.44
2019-04-03T01:21:15.865Z,96977.95
2019-04-03T01:23:46.120Z,96978.16
2019-04-03T01:26:16.257Z,96969.66
2019-04-03T01:28:46.367Z,96966.74
2019-04-03T01:31:16.632Z,96967.66
2019-04-03T01:33:47.185Z,96964.25
2019-04-03T01:36:18.219Z,96969.14
2019-04-03T01:38:49.806Z,96964.73
2019-04-03T01:41:21.676Z,96958.85
2019-04-03T01:43:53.989Z,96958.16
2019-04-03T01:46:24.336Z,96957.92
2019-04-03T01:48:58.024Z,96957.02
2019-04-03T01:51:29.691Z,96958.51
2019-04-03T01:54:02.311Z,96956.13
2019-04-03T01:56:32.017Z,96961.55
2019-04-03T01:59:02.627Z,96957.59
2019-04-03T02:01:33.318Z,96957.70
2019-04-03T02:04:04.480Z,96964.83
2019-04-03T02:06:34.847Z,96953.42
2019-04-03T02:09:08.047Z,96957.59
2019-04-03T02:11:38.799Z,96956.91
2019-04-03T02:14:09.240Z,96954.09
2019-04-03T02:16:39.562Z,96951.28
2019-04-03T02:19:09.871Z,96958.83
2019-04-03T02:21:40.022Z,96954.42
2019-04-03T02:24:10.325Z,96943.82
2019-04-03T02:26:41.687Z,96944.37
2019-04-03T02:29:11.898Z,96949.11
2019-04-03T02:31:42.266Z,96950.71
2019-04-03T02:34:13.776Z,96948.42
2019-04-03T02:36:45.415Z,96952.28
2019-04-03T02:39:18.355Z,96947.97
2019-04-03T02:41:48.450Z,96952.94
2019-04-03T02:44:20.062Z,96958.91
2019-04-03T02:46:50.502Z,96953.25
2019-04-03T02:49:20.928Z,96953.70
2019-04-03T02:51:53.024Z,96956.30
2019-04-03T02:54:28.826Z,96954.34
2019-04-03T02:56:59.525Z,96956.70
2019-04-03T02:59:29.799Z,96955.80
2019-04-03T03:02:00.413Z,96957.70
2019-04-03T03:04:30.767Z,96955.13
2019-04-03T03:07:03.892Z,96953.87
2019-04-03T03:09:33.532Z,96953.58
2019-04-03T03:12:04.067Z,96963.05
2019-04-03T03:14:38.230Z,96952.87
2019-04-03T03:17:07.156Z,96952.96
2019-04-03T03:19:38.083Z,96954.97
2019-04-03T03:22:09.222Z,96952.95
2019-04-03T03:24:41.283Z,96961.97
2019-04-03T03:27:12.269Z,96955.83
2019-04-03T03:29:43.954Z,96951.77
2019-04-03T03:32:19.902Z,96957.16
2019-04-03T03:34:54.706Z,96953.75
2019-04-03T03:37:18.999Z,96955.56
2019-04-03T03:39:49.539Z,96956.75
2019-04-03T03:42:20.231Z,96948.83
2019-04-03T03:44:50.545Z,96944.09
2019-04-03T03:47:20.911Z,96947.50
2019-04-03T03:49:51.192Z,96941.45
2019-04-03T03:52:22.195Z,96946.20
2019-04-03T03:54:52.693Z,96941.08
2019-04-03T03:57:23.308Z,96936.98
2019-04-03T03:59:53.695Z,96931.92
2019-04-03T04:02:24.027Z,96929.58
2019-04-03T04:04:54.563Z,96933.79
2019-04-03T04:07:25.139Z,96935.89
2019-04-03T04:09:55.492Z,96934.07
2019-04-03T04:12:25.894Z,96933.42
2019-04-03T04:14:57.216Z,96934.53
2019-04-03T04:17:29.168Z,96931.24
2019-04-03T04:20:03.068Z,96930.20
2019-04-03T04:22:32.173Z,96934.92
2019-04-03T04:25:05.346Z,96927.45
2019-04-03T04:27:37.549Z,96931.97
2019-04-03T04:30:07.815Z,96924.54
2019-04-03T04:32:38.001Z,96926.66
2019-04-03T04:35:10.732Z,96920.88
2019-04-03T04:37:40.810Z,96919.45
2019-04-03T04:40:11.595Z,96914.70
2019-04-03T04:42:41.716Z,96909.59
2019-04-03T04:45:12.481Z,96910.19
2019-04-03T04:47:45.534Z,96903.42
2019-04-03T04:50:24.261Z,96905.58
2019-04-03T04:52:54.196Z,96900.30
2019-04-03T04:55:24.560Z,96900.17
2019-04-03T04:57:54.768Z,96897.69
2019-04-03T05:00:25.097Z,96902.41
2019-04-03T05:02:55.573Z,96901.33
2019-04-03T05:05:27.414Z,96890.84
2019-04-03T05:07:59.694Z,96891.91
2019-04-03T05:18:30.835Z,96877.30
2019-04-03T05:21:01.542Z,96884.03
2019-04-03T05:23:31.959Z,96884.37
2019-04-03T05:26:02.364Z,96880.10
2019-04-03T05:28:34.189Z,96880.02
2019-04-03T05:31:06.067Z,96877.57
2019-04-03T05:33:37.298Z,96876.77
2019-04-03T05:36:08.653Z,96880.73
2019-04-03T05:38:38.976Z,96884.83
2019-04-03T05:41:09.190Z,96885.89
2019-04-03T05:43:39.352Z,96891.79
2019-04-03T05:46:09.768Z,96888.33
2019-04-03T05:48:40.073Z,96889.09
2019-04-03T05:51:10.496Z,96887.78
2019-04-03T05:53:41.031Z,96892.30
2019-04-03T05:56:12.405Z,96882.92
2019-04-03T05:58:54.466Z,96881.67
2019-04-03T06:01:16.282Z,96886.85
2019-04-03T06:03:46.503Z,96884.03
2019-04-03T06:06:16.812Z,96874.83
2019-04-03T06:08:50.885Z,96874.83
2019-04-03T06:11:20.852Z,96875.80
2019-04-03T06:13:51.813Z,96873.39
2019-04-03T06:16:24.564Z,96873.75
2019-04-03T06:18:56.997Z,96872.58
2019-04-03T06:21:27.714Z,96871.80
2019-04-03T06:23:58.280Z,96868.70
2019-04-03T06:26:29.022Z,96870.70
2019-04-03T06:28:59.219Z,96864.34
2019-04-03T06:31:29.618Z,96860.72
2019-04-03T06:34:00.265Z,96857.41
2019-04-03T06:36:31.076Z,96850.42
2019-04-03T06:39:01.761Z,96842.74
2019-04-03T06:41:32.368Z,96842.31
2019-04-03T06:44:04.061Z,96843.47
2019-04-03T06:46:34.780Z,96835.02
2019-04-03T06:49:08.250Z,96835.61
2019-04-03T06:51:37.645Z,96835.89
2019-04-03T06:54:08.375Z,96832.75
2019-04-03T06:56:40.523Z,96828.80
2019-04-03T06:59:11.532Z,96831.33
2019-04-03T07:01:41.892Z,96833.50
2019-04-03T07:04:12.405Z,96831.25
2019-04-03T07:06:44.738Z,96832.50
2019-04-03T07:09:22.367Z,96827.45
2019-04-03T07:11:47.108Z,96819.59
2019-04-03T07:14:17.592Z,96822.47
2019-04-03T07:16:47.767Z,96822.50
2019-04-03T07:19:17.983Z,96824.31
2019-04-03T07:21:48.328Z,96821.02
2019-04-03T07:24:18.731Z,96821.63
2019-04-03T07:26:49.407Z,96821.61
2019-04-03T07:29:19.710Z,96819.45
2019-04-03T07:31:51.026Z,96816.88
2019-04-03T07:34:21.216Z,96816.93
2019-04-03T07:36:51.386Z,96812.81
2019-04-03T07:39:21.714Z,96818.83
2019-04-03T07:41:54.411Z,96820.48
2019-04-03T07:44:24.697Z,96814.48
2019-04-03T07:46:55.689Z,96811.69
2019-04-03T07:49:25.942Z,96813.22
2019-04-03T07:51:56.582Z,96808.03
2019-04-03T07:54:27.266Z,96810.39
2019-04-03T07:56:58.187Z,96803.73
2019-04-03T07:59:29.574Z,96799.69
2019-04-03T08:02:00.014Z,96803.98
2019-04-03T08:04:30.362Z,96806.84
2019-04-03T08:07:00.541Z,96817.19
2019-04-03T08:09:30.670Z,96817.97
2019-04-03T08:12:03.437Z,96819.75
2019-04-03T08:14:32.995Z,96822.39
2019-04-03T08:17:03.397Z,96822.34
2019-04-03T08:19:37.035Z,96825.89
2019-04-03T08:22:07.393Z,96828.34
2019-04-03T08:24:37.932Z,96832.98
2019-04-03T08:27:09.655Z,96830.76
2019-04-03T08:29:39.879Z,96833.36
2019-04-03T08:32:10.611Z,96836.48
2019-04-03T08:34:42.371Z,96835.91
2019-04-03T08:37:12.569Z,96834.91
2019-04-03T08:39:43.413Z,96838.20
2019-04-03T08:42:14.137Z,96832.33
2019-04-03T08:44:44.853Z,96832.48
2019-04-03T08:47:15.387Z,96828.68
2019-04-03T08:49:45.658Z,96832.39
2019-04-03T08:52:16.451Z,96835.91
2019-04-03T08:54:46.988Z,96827.70
2019-04-03T08:57:20.522Z,96830.11
2019-04-03T08:59:50.092Z,96836.05
2019-04-03T09:02:20.588Z,96833.84
2019-04-03T09:04:51.204Z,96840.30
2019-04-03T09:07:24.636Z,96839.10
2019-04-03T09:09:54.455Z,96839.03
2019-04-03T09:12:25.384Z,96819.62
2019-04-03T09:14:57.034Z,96828.05
2019-04-03T09:17:28.514Z,96821.27
2019-04-03T09:19:58.905Z,96818.12
2019-04-03T09:22:30.491Z,96815.05
2019-04-03T09:25:01.033Z,96810.87
2019-04-03T09:27:31.209Z,96808.95
2019-04-03T09:30:01.463Z,96807.97
2019-04-03T09:32:33.349Z,96801.42
2019-04-03T09:35:11.526Z,96795.98
2019-04-03T09:37:41.732Z,96792.39
2019-04-03T09:40:12.193Z,96784.41
2019-04-03T09:42:42.894Z,96788.14
2019-04-03T09:45:13.460Z,96780.70
2019-04-03T09:47:44.594Z,96776.91
2019-04-03T09:50:15.427Z,96772.38
2019-04-03T09:52:49.386Z,96773.52
2019-04-03T09:55:18.697Z,96764.11
2019-04-03T09:57:49.007Z,96758.86
2019-04-03T10:00:19.870Z,96747.43
2019-04-03T10:02:51.562Z,96755.16
2019-04-03T10:05:22.277Z,96741.69
2019-04-03T10:07:52.790Z,96731.87
2019-04-03T10:10:25.659Z,96743.27
2019-04-03T10:12:55.454Z,96739.55
2019-04-03T10:15:25.966Z,96739.95
2019-04-03T10:17:56.713Z,96736.48
2019-04-03T10:20:27.548Z,96734.94
2019-04-03T10:22:57.985Z,96730.41
2019-04-03T10:25:28.641Z,96719.34
2019-04-03T10:27:59.569Z,96719.10
2019-04-03T10:30:30.178Z,96717.24
2019-04-03T10:33:01.038Z,96708.41
2019-04-03T10:35:32.837Z,96699.64
2019-04-03T10:38:03.176Z,96699.70
2019-04-03T10:40:33.399Z,96695.30
2019-04-03T10:43:06.017Z,96690.53
2019-04-03T10:45:35.900Z,96673.04
2019-04-03T10:48:07.879Z,96678.50
2019-04-03T10:50:38.960Z,96670.20
2019-04-03T10:53:09.198Z,96667.05
2019-04-03T10:55:39.503Z,96664.16
2019-04-03T10:58:09.907Z,96664.02
2019-04-03T11:00:40.791Z,96645.24
2019-04-03T11:03:12.128Z,96645.24
2019-04-03T11:05:42.656Z,96641.75
2019-04-03T11:08:14.088Z,96634.56
2019-04-03T11:10:44.490Z,96638.08
2019-04-03T11:13:14.751Z,96633.42
2019-04-03T11:15:45.152Z,96631.39
2019-04-03T11:18:15.972Z,96616.89
2019-04-03T11:20:46.150Z,96615.67
2019-04-03T11:23:16.374Z,96610.83
2019-04-03T11:25:47.615Z,96608.27
2019-04-03T11:28:18.445Z,96603.59
2019-04-03T11:30:51.125Z,96600.84
2019-04-03T11:33:20.871Z,96593.72
2019-04-03T11:35:53.676Z,96590.48
2019-04-03T11:38:27.963Z,96584.63
2019-04-03T11:40:55.280Z,96584.65
2019-04-03T11:43:25.674Z,96577.41
2019-04-03T11:45:57.193Z,96581.82
2019-04-03T11:48:27.755Z,96570.70
2019-04-03T11:50:58.289Z,96581.07
2019-04-03T11:53:28.454Z,96567.83
2019-04-03T11:55:58.905Z,96564.47
2019-04-03T11:58:29.352Z,96547.48
2019-04-03T12:00:59.994Z,96547.48
2019-04-03T12:03:30.420Z,96542.17
2019-04-03T12:06:00.948Z,96540.22
2019-04-03T12:08:31.615Z,96540.41
2019-04-03T12:11:01.948Z,96542.45
2019-04-03T12:13:32.306Z,96536.83
2019-04-03T12:16:02.879Z,96537.35
2019-04-03T12:18:34.234Z,96532.81
2019-04-03T12:21:05.694Z,96525.36
2019-04-03T12:23:38.772Z,96528.73
2019-04-03T12:26:10.511Z,96524.13
2019-04-03T12:28:40.104Z,96523.84
2019-04-03T12:31:10.540Z,96514.83
2019-04-03T12:33:51.978Z,96513.23
2019-04-03T12:36:14.443Z,96496.70
2019-04-03T12:38:44.988Z,96499.67
2019-04-03T12:41:15.592Z,96504.84
2019-04-03T12:43:46.132Z,96488.84
2019-04-03T12:46:21.031Z,96493.19
2019-04-03T12:48:51.463Z,96483.91
2019-04-03T12:51:21.954Z,96474.88
2019-04-03T12:53:52.633Z,96472.84
2019-04-03T12:56:25.231Z,96468.14
2019-04-03T12:58:55.340Z,96464.41
2019-04-03T13:01:27.640Z,96459.91
2019-04-03T13:03:58.225Z,96457.36
2019-04-03T13:06:28.634Z,96445.84
2019-04-03T13:08:58.903Z,96435.84
2019-04-03T13:11:29.761Z,96436.18
2019-04-03T13:14:02.020Z,96424.16
2019-04-03T13:16:32.355Z,96416.38
2019-04-03T13:19:03.110Z,96414.91
2019-04-03T13:21:33.861Z,96410.78
2019-04-03T13:24:04.334Z,96397.66
2019-04-03T13:26:34.916Z,96397.66
2019-04-03T13:29:08.619Z,96398.70
2019-04-03T13:31:38.007Z,96397.00
2019-04-03T13:34:11.212Z,96392.48
2019-04-03T13:36:41.043Z,96385.36
2019-04-03T13:39:11.987Z,96395.06
2019-04-03T13:41:43.334Z,96400.66
2019-04-03T13:44:14.504Z,96398.41
2019-04-03T13:46:45.366Z,96396.17
2019-04-03T13:49:18.087Z,96390.61
2019-04-03T13:51:47.939Z,96386.19
2019-04-03T13:54:18.479Z,96376.75
2019-04-03T13:56:49.004Z,96377.53
2019-04-03T13:59:19.339Z,96382.11
2019-04-03T14:01:50.861Z,96387.79
2019-04-03T14:04:22.931Z,96382.06
2019-04-03T14:06:53.920Z,96373.72
2019-04-03T14:09:24.303Z,96364.59
2019-04-03T14:11:54.760Z,96369.22
2019-04-03T14:14:25.771Z,96353.01
2019-04-03T14:16:56.410Z,96345.52
2019-04-03T14:19:26.784Z,96343.61
2019-04-03T14:21:59.986Z,96348.49
2019-04-03T14:24:39.611Z,96342.85
2019-04-03T14:27:01.649Z,96340.52
2019-04-03T14:29:32.594Z,96345.17
2019-04-03T14:32:03.201Z,96353.00
2019-04-03T14:34:33.745Z,96354.80
2019-04-03T14:37:04.168Z,96363.38
2019-04-03T14:39:34.394Z,96358.43
2019-04-03T14:42:07.166Z,96358.43
2019-04-03T14:44:38.150Z,96354.69
2019-04-03T14:47:09.998Z,96343.21
2019-04-03T14:49:40.674Z,96351.19
2019-04-03T14:52:10.984Z,96351.83
2019-04-03T14:54:41.472Z,96351.83
2019-04-03T14:57:19.254Z,96343.20
2019-04-03T14:59:44.390Z,96349.08
2019-04-03T15:02:14.780Z,96339.05
2019-04-03T15:04:45.324Z,96336.84
2019-04-03T15:07:17.788Z,96338.80
2019-04-03T15:09:48.133Z,96355.45
2019-04-03T15:12:21.522Z,96363.81
2019-04-03T15:14:52.235Z,96359.80
2019-04-03T15:17:23.999Z,96365.31
2019-04-03T15:19:56.630Z,96379.28
2019-04-03T15:22:27.957Z,96383.01
2019-04-03T15:24:58.441Z,96383.73
2019-04-03T15:27:29.684Z,96389.39
2019-04-03T15:30:00.314Z,96397.71
2019-04-03T15:32:33.473Z,96401.83
2019-04-03T15:35:04.183Z,96405.23
2019-04-03T15:37:35.060Z,96415.62
2019-04-03T15:40:06.305Z,96424.87
2019-04-03T15:42:39.837Z,96435.72
2019-04-03T15:45:09.533Z,96460.64
2019-04-03T15:47:44.955Z,96487.58
2019-04-03T15:50:13.079Z,96512.59
2019-04-03T15:52:47.874Z,96544.84
2019-04-03T15:55:16.426Z,96561.07
2019-04-03T15:57:48.283Z,96554.06
2019-04-03T16:00:19.435Z,96584.33
2019-04-03T16:02:50.766Z,96628.02
2019-04-03T16:05:21.067Z,96540.59
2019-04-03T16:07:51.826Z,96496.30
2019-04-03T16:10:24.227Z,96549.89
2019-04-03T16:12:57.150Z,96569.77
2019-04-03T16:15:27.766Z,96591.63
2019-04-03T16:17:58.998Z,96617.64
2019-04-03T16:20:29.926Z,96538.56
2019-04-03T16:23:01.343Z,96560.34
2019-04-03T16:25:32.590Z,96605.08
2019-04-03T16:28:03.234Z,96599.29
2019-04-03T16:30:34.145Z,96632.23
2019-04-03T16:33:05.090Z,96659.42
2019-04-03T16:35:37.408Z,96661.13
2019-04-03T16:38:08.370Z,96612.53
2019-04-03T16:40:39.484Z,96620.95
2019-04-03T16:43:11.649Z,96629.08
2019-04-03T16:45:42.328Z,96638.83
2019-04-03T16:48:15.929Z,96634.05
2019-04-03T16:50:46.309Z,96642.38
2019-04-03T16:53:20.235Z,96657.77
2019-04-03T16:55:50.667Z,96661.05
2019-04-03T16:58:21.767Z,96656.06
2019-04-03T17:00:52.584Z,96660.19
2019-04-03T17:03:23.434Z,96658.70
2019-04-03T17:05:54.224Z,96669.00
2019-04-03T17:08:27.551Z,96657.75
2019-04-03T17:10:58.013Z,96677.08
2019-04-03T17:13:31.734Z,96672.81
2019-04-03T17:16:02.505Z,96657.52
2019-04-03T17:18:33.558Z,96659.80
2019-04-03T17:21:04.014Z,96660.42
2019-04-03T17:23:38.157Z,96653.22
2019-04-03T17:26:09.743Z,96649.13
2019-04-03T17:28:41.730Z,96640.24
2019-04-03T17:31:12.820Z,96640.49
2019-04-03T17:33:43.740Z,96642.23
2019-04-03T17:36:14.155Z,96635.02
2019-04-03T17:38:47.202Z,96635.17
2019-04-03T17:41:18.192Z,96625.84
2019-04-03T17:43:49.297Z,96628.78
2019-04-03T17:46:20.020Z,96634.16
2019-04-03T17:48:50.565Z,96648.47
2019-04-03T17:51:21.084Z,96653.09
2019-04-03T17:53:51.695Z,96643.67
2019-04-03T17:56:22.760Z,96641.86
2019-04-03T17:58:53.408Z,96646.74
2019-04-03T18:01:23.916Z,96656.02
2019-04-03T18:03:54.724Z,96657.83
2019-04-03T18:06:27.129Z,96649.75
2019-04-03T18:08:57.782Z,96657.82
2019-04-03T18:11:28.456Z,96664.59
2019-04-03T18:13:59.336Z,96668.11
2019-04-03T18:16:30.273Z,96670.22
2019-04-03T18:19:04.564Z,96660.11
2019-04-03T18:21:34.226Z,96651.48
2019-04-03T18:24:05.092Z,96653.45
2019-04-03T18:26:35.477Z,96655.82
2019-04-03T18:29:06.634Z,96655.67
2019-04-03T18:31:37.851Z,96658.58
2019-04-03T18:34:08.418Z,96658.51
2019-04-03T18:36:38.990Z,96666.03
2019-04-03T18:39:11.021Z,96669.98
2019-04-03T18:41:41.758Z,96665.09
2019-04-03T18:44:22.018Z,96665.56
2019-04-03T18:46:44.867Z,96670.87
2019-04-03T18:49:15.569Z,96689.38
2019-04-03T18:51:45.984Z,96689.38
2019-04-03T18:54:16.411Z,96686.75
2019-04-03T18:56:46.742Z,96686.53
2019-04-03T18:59:17.279Z,96689.04
2019-04-03T19:01:47.905Z,96699.56
2019-04-03T19:04:23.612Z,96699.08
2019-04-03T19:06:55.004Z,96700.63
2019-04-03T19:09:26.008Z,96701.77
2019-04-03T19:12:08.016Z,96697.16
2019-04-03T19:14:32.114Z,96697.41
2019-04-03T19:17:02.928Z,96694.92
2019-04-03T19:19:33.685Z,96700.28
2019-04-03T19:22:04.666Z,96689.75
2019-04-03T19:24:35.165Z,96693.94
2019-04-03T19:27:05.915Z,96683.79
2019-04-03T19:29:36.426Z,96679.78
2019-04-03T19:32:07.005Z,96685.16
2019-04-03T19:34:37.301Z,96690.21
2019-04-03T19:37:07.884Z,96695.59
2019-04-03T19:39:38.866Z,96703.52
2019-04-03T19:42:09.695Z,96699.17
2019-04-03T19:44:41.743Z,96684.05
2019-04-03T19:47:12.770Z,96690.55
2019-04-03T19:49:43.387Z,96687.75
2019-04-03T19:52:14.248Z,96689.95
2019-04-03T19:54:44.657Z,96685.70
2019-04-03T19:57:15.307Z,96680.80
2019-04-03T19:59:45.885Z,96671.06
2019-04-03T20:02:16.106Z,96677.37
2019-04-03T20:04:50.899Z,96676.67
2019-04-03T20:07:21.377Z,96668.13
2019-04-03T20:09:51.819Z,96664.19
2019-04-03T20:12:23.495Z,96660.54
2019-04-03T20:14:58.461Z,96662.11
2019-04-03T20:17:26.126Z,96668.36
2019-04-03T20:19:57.878Z,96658.99
2019-04-03T20:22:29.162Z,96651.80
2019-04-03T20:25:00.594Z,96652.57
2019-04-03T20:27:31.513Z,96643.77
2019-04-03T20:30:01.972Z,96660.16
2019-04-03T20:32:32.264Z,96652.70
2019-04-03T20:35:02.559Z,96649.31
2019-04-03T20:37:33.225Z,96651.48
2019-04-03T20:40:04.186Z,96647.14
2019-04-03T20:42:35.007Z,96653.25
2019-04-03T20:45:06.114Z,96647.87
2019-04-03T20:47:36.347Z,96638.77
2019-04-03T20:50:07.720Z,96635.50
2019-04-03T20:52:38.340Z,96635.62
2019-04-03T20:55:08.988Z,96643.94
2019-04-03T20:57:39.574Z,96646.30
2019-04-03T21:00:12.991Z,96645.83
2019-04-03T21:02:43.296Z,96650.08
2019-04-03T21:05:13.574Z,96652.83
2019-04-03T21:07:43.796Z,96656.09
2019-04-03T21:10:14.095Z,96645.56
2019-04-03T21:12:44.763Z,96647.97
2019-04-03T21:15:15.485Z,96646.11
2019-04-03T21:17:45.778Z,96651.92
2019-04-03T21:20:17.332Z,96656.05
2019-04-03T21:22:47.670Z,96660.67
2019-04-03T21:25:18.079Z,96672.16
2019-04-03T21:27:48.289Z,96670.81
2019-04-03T21:30:19.230Z,96660.55
2019-04-03T21:32:49.336Z,96663.62
2019-04-03T21:35:19.681Z,96653.96
2019-04-03T21:37:49.964Z,96657.67
2019-04-03T21:40:20.152Z,96662.98
2019-04-03T21:42:59.588Z,96652.98
2019-04-03T21:45:30.258Z,96659.63
2019-04-03T21:48:00.524Z,96655.03
2019-04-03T21:50:30.770Z,96650.52
2019-04-03T21:53:01.036Z,96654.70
2019-04-03T21:55:34.616Z,96653.22
2019-04-03T21:58:04.111Z,96658.92
2019-04-03T22:01:11.225Z,96669.98
2019-04-03T22:03:41.560Z,96669.78
2019-04-03T22:06:11.800Z,96660.70
2019-04-03T22:08:42.010Z,96659.78
2019-04-03T22:11:12.391Z,96666.01
2019-04-03T22:13:42.633Z,96665.52
2019-04-03T22:16:13.279Z,96661.98
2019-04-03T22:18:43.718Z,96659.30
2019-04-03T22:21:14.014Z,96659.89
2019-04-03T22:23:44.158Z,96657.42
2019-04-03T22:26:14.430Z,96649.00
2019-04-03T22:28:46.504Z,96653.08
2019-04-03T22:31:16.875Z,96652.42
2019-04-03T22:33:47.153Z,96654.47
2019-04-03T22:36:17.446Z,96642.53
2019-04-03T22:38:47.667Z,96650.64
2019-04-03T22:41:18.365Z,96640.45
2019-04-03T22:43:48.662Z,96641.56
2019-04-03T22:46:21.633Z,96648.58
2019-04-03T22:48:50.900Z,96649.20
2019-04-03T22:51:21.191Z,96649.00
2019-04-03T22:53:51.558Z,96642.55
2019-04-03T22:56:21.740Z,96635.67
2019-04-03T22:58:52.934Z,96632.73
2019-04-03T23:01:23.805Z,96632.84
2019-04-03T23:03:54.170Z,96639.02
2019-04-03T23:06:24.481Z,96634.45
2019-04-03T23:08:54.708Z,96636.08
2019-04-03T23:11:24.864Z,96634.99
2019-04-03T23:13:55.123Z,96629.14
2019-04-03T23:16:25.351Z,96622.80
2019-04-03T23:18:56.095Z,96612.72
2019-04-03T23:21:26.484Z,96603.76
2019-04-03T23:23:57.913Z,96598.88
2019-04-03T23:26:31.791Z,96602.59
2019-04-03T23:29:00.879Z,96598.98
2019-04-03T23:31:31.049Z,96590.45
2019-04-03T23:34:03.223Z,96600.92
2019-04-03T23:36:33.640Z,96586.00
2019-04-03T23:39:05.996Z,96572.39
2019-04-03T23:41:37.016Z,96565.28
2019-04-03T23:44:07.150Z,96568.30
2019-04-03T23:46:37.471Z,96560.12
2019-04-03T23:49:07.613Z,96566.88
2019-04-03T23:51:37.799Z,96565.31
2019-04-03T23:54:07.959Z,96546.94
2019-04-03T23:56:38.886Z,96548.27
2019-04-03T23:59:12.799Z,96537.07
